Aeroporto :
LOGIN :

Iscrizione | Disclaimer

   EN    FR    IT 

 










Sommario :    VFR   VFR Marginale   IFR   IFR Intensivo   IFR Molto Intensivo
Visibilità : 
Base nubi : 
>= 8 km
>= 3000ft
5 / 8 km
1000 / 3000 ft
1500m / 5 km
500 / 1000 ft
800 / 1500m
200 / 500 ft
< 800m
< 200 ft
Simboli :   Temporali  Nebbia  Neve Forte  Precipitazioni Forti  Vento > 20 kt
SIGMETs :   Varie  Temporali  Ghiacco  Turbolenza  Onda orograficha  Ceneri Vulcaniche






- Altitudine del aeroporto : 74 ft
- Codice IATA : LRH


LFBH - La Rochelle Ile de Ré

ULTIMO METAR :
  • 271800Z AUTO 17008KT 9999 -RA SCT015/// BKN021/// BKN052/// ///TCU 11/10 Q1015 TEMPO 4500 RA BKN006 BKN045 BECMG 26010KT

METARs OBSOLETI :
  • 271730Z AUTO 18007KT 9999 RA BKN019/// BKN027/// BKN068/// ///TCU 11/09 Q1015 TEMPO 4500 RA BKN006 BKN045 BECMG 26010KT
  • 271700Z AUTO 17010KT 9999 BKN016/// OVC025/// ///TCU 12/08 Q1015 BECMG 27012KT NSC
  • 271630Z AUTO 16011KT 9999 SCT015 OVC098 12/08 Q1015 BECMG 27012KT
  • 271600Z AUTO 17010KT CAVOK 12/07 Q1015 BECMG 27012KT
  • 271530Z AUTO 16012KT CAVOK 12/08 Q1015 BECMG 27012KT

TAF TAF LFBH
Valido dal 27 a 18 ore il 28 a 18 ore UTC


271700Z 2718/2818 16010KT 9999 SCT015 BKN030
TEMPO 2718/2723 4500 RA BKN006 BKN045
BECMG 2718/2720 26010KT
BECMG 2722/2724 9999 SCT035
TEMPO 2800/2817 3000 SHRA SCT025CB BKN030TCU
PROB40
TEMPO 2805/2812 2500 TSRA BKN025CB
ATIS : +33 5 46 00 13 92



MetMap, La meteo Aeronautica in un colpo d'occhio ! - Copyright ORBIFLY Dicembre 2007 - Disclaimer

ORBIFLY MET'MAP TEAM :

Programmazione e sviluppo : Alexandra Zaïnal
Concezione : Baudouin d'Aumeries
Supporto tecnico e logistico : Manuel Goepfert
Aiuto : Marc-Olivier Méhu
Aiuto per la traduzione : Arnaldo La Scala




FONTI E CREDITI :

   NOAA